Time;durP1;ratioP1;P1;durP2;ratioP2;P2;SDS_P1;SDS_P2;PMS_P1;PMS_P2;Temp;Humidity;BMP_temperature;BMP_pressure;BME280_temperature;BME280_humidity;BME280_pressure;Samples;Min_cycle;Max_cycle;Signal;HPM_P1;HPM_P2
2021/12/24 00:00:53;;;;;;;;;;;;;;;;;;2068092;28;872;-80
2021/12/24 00:01:54;;;;;;;;;;;;;;;;;;2059379;28;1278;-80
2021/12/24 00:02:56;;;;;;;;;;;;;;;;;;2059324;28;1914;-80
2021/12/24 00:03:56;;;;;;;;;;;;;;;;;;2051588;28;1680;-80
2021/12/24 00:05:00;;;;;;;;;;;;;;;;;;2059300;28;999;-81
2021/12/24 00:06:00;;;;;;;;;;;;;;;;;;2059518;28;1220;-80
2021/12/24 00:07:02;;;;;;;;;;;;;;;;;;2051251;29;1396;-80
2021/12/24 00:08:03;;;;;;;;;;;;;;;;;;2059304;28;1574;-79
2021/12/24 00:09:05;;;;;;;;;;;;;;;;;;2051406;28;1534;-79
2021/12/24 00:10:07;;;;;;;;;;;;;;;;;;2051477;28;1455;-79
2021/12/24 00:11:09;;;;;;;;;;;;;;;;;;2051154;29;2039;-80
2021/12/24 00:12:14;;;;;;;;;;;;;;;;;;2051348;28;1205;-80
2021/12/24 00:13:17;;;;;;;;;;;;;;;;;;2051318;29;1417;-79
2021/12/24 00:14:20;;;;;;;;;;;;;;;;;;2051758;28;1239;-81
2021/12/24 00:15:47;;;;;;;;;;;;;;;;;;2059280;28;1030;-80
2021/12/24 00:16:51;;;;;;;;;;;;;;;;;;2058674;28;1656;-79
2021/12/24 00:18:00;;;;;;;;;;;;;;;;;;2059246;28;773;-80
2021/12/24 00:19:13;;;;;;;;;;;;;;;;;;2052130;28;1220;-79
2021/12/24 00:20:46;;;;;;;;;;;;;;;;;;2059177;28;1225;-79
2021/12/24 00:35:14;;;;;;;;;;;;;;;;;;2059181;28;1633;-79
2021/12/24 00:36:16;;;;;;;;;;;;;;;;;;2051412;28;1107;-78
2021/12/24 00:37:19;;;;;;;;;;;;;;;;;;2051212;28;1415;-77
2021/12/24 00:38:21;;;;;;;;;;;;;;;;;;2059538;28;1254;-79
2021/12/24 00:39:22;;;;;;;;;;;;;;;;;;2058694;28;1538;-77
2021/12/24 00:40:24;;;;;;;;;;;;;;;;;;2059019;28;1274;-77
2021/12/24 00:41:25;;;;;;;;;;;;;;;;;;2059057;28;1233;-77
2021/12/24 00:42:27;;;;;;;;;;;;;;;;;;2059019;28;1914;-77
2021/12/24 00:43:28;;;;;;;;;;;;;;;;;;2059175;28;1384;-76
2021/12/24 00:44:29;;;;;;;;;;;;;;;;;;2059126;28;1588;-77
2021/12/24 00:45:32;;;;;;;;;;;;;;;;;;2051058;29;1344;-77
2021/12/24 00:46:34;;;;;;;;;;;;;;;;;;2051143;28;1716;-77
2021/12/24 00:47:35;;;;;;;;;;;;;;;;;;2059404;28;883;-78
2021/12/24 00:48:36;;;;;;;;;;;;;;;;;;2058996;28;1335;-77
2021/12/24 00:49:39;;;;;;;;;;;;;;;;;;2059231;28;1794;-77
2021/12/24 00:50:52;;;;;;;;;;;;;;;;;;2067136;28;1560;-77
2021/12/24 00:52:07;;;;;;;;;;;;;;;;;;2058917;28;1385;-78
2021/12/24 00:55:02;;;;;;;;;;;;;;;;;;2060615;28;1734;-77
2021/12/24 00:55:54;;;;;;;;;;;;;;;;;;2061042;28;1683;-77
2021/12/24 00:56:54;;;;;;;;;;;;;;;;;;2059233;28;1273;-78
2021/12/24 00:57:57;;;;;;;;;;;;;;;;;;2058685;28;1245;-77
2021/12/24 00:58:58;;;;;;;;;;;;;;;;;;2059199;28;921;-77
2021/12/24 00:59:59;;;;;;;;;;;;;;;;;;2059091;28;1262;-77
2021/12/24 01:01:01;;;;;;;;;;;;;;;;;;2050921;28;1752;-77
2021/12/24 01:02:04;;;;;;;;;;;;;;;;;;2051174;28;1271;-77
2021/12/24 01:03:07;;;;;;;;;;;;;;;;;;2058954;28;1910;-77
2021/12/24 01:04:08;;;;;;;;;;;;;;;;;;2067010;28;1216;-77
2021/12/24 01:05:11;;;;;;;;;;;;;;;;;;2058907;28;1155;-77
2021/12/24 01:06:15;;;;;;;;;;;;;;;;;;2059486;28;1169;-78
2021/12/24 01:07:17;;;;;;;;;;;;;;;;;;2058540;28;1283;-77
2021/12/24 01:08:19;;;;;;;;;;;;;;;;;;2058963;28;1155;-77
2021/12/24 01:09:20;;;;;;;;;;;;;;;;;;2058049;28;1439;-77
2021/12/24 01:10:23;;;;;;;;;;;;;;;;;;2059087;28;980;-78
2021/12/24 01:11:23;;;;;;;;;;;;;;;;;;2062478;28;2005;-78
2021/12/24 01:12:26;;;;;;;;;;;;;;;;;;2051059;29;942;-78
2021/12/24 01:13:28;;;;;;;;;;;;;;;;;;2050962;28;1776;-78
2021/12/24 01:14:30;;;;;;;;;;;;;;;;;;2050983;29;1701;-78
2021/12/24 01:15:33;;;;;;;;;;;;;;;;;;2042881;29;1697;-78
2021/12/24 01:16:40;;;;;;;;;;;;;;;;;;2051176;28;1421;-78
2021/12/24 01:17:48;;;;;;;;;;;;;;;;;;2058670;28;1190;-77
2021/12/24 01:18:58;;;;;;;;;;;;;;;;;;2059084;28;1415;-77
2021/12/24 01:20:06;;;;;;;;;;;;;;;;;;2059090;28;1351;-77
2021/12/24 01:21:20;;;;;;;;;;;;;;;;;;2050800;29;1453;-77
2021/12/24 01:23:49;;;;;;;;;;;;;;;;;;2052438;28;1436;-77
2021/12/24 01:24:59;;;;;;;;;;;;;;;;;;2050789;29;1416;-80
2021/12/24 01:26:04;;;;;;;;;;;;;;;;;;2051488;28;1250;-77
2021/12/24 01:27:16;;;;;;;;;;;;;;;;;;2050470;29;1344;-77
2021/12/24 01:29:51;;;;;;;;;;;;;;;;;;2053309;28;1582;-77
2021/12/24 01:39:04;;;;;;;;;;;;;;;;;;2053541;28;825;-77
2021/12/24 01:40:19;;;;;;;;;;;;;;;;;;2058859;28;1184;-77
2021/12/24 01:42:40;;;;;;;;;;;;;;;;;;2050670;29;1774;-77
2021/12/24 01:42:45;;;;;;;;;;;;;;;;;;2053147;28;1989;-77
2021/12/24 01:43:46;;;;;;;;;;;;;;;;;;2050467;29;1508;-77
2021/12/24 01:44:47;;;;;;;;;;;;;;;;;;2050653;28;1430;-78
2021/12/24 01:45:50;;;;;;;;;;;;;;;;;;2050516;28;1226;-77
2021/12/24 01:46:50;;;;;;;;;;;;;;;;;;2050863;29;1571;-80
2021/12/24 01:47:55;;;;;;;;;;;;;;;;;;2050518;29;1652;-78
2021/12/24 01:48:56;;;;;;;;;;;;;;;;;;2058786;28;1171;-77
2021/12/24 01:49:58;;;;;;;;;;;;;;;;;;2050458;29;1206;-77
2021/12/24 01:50:58;;;;;;;;;;;;;;;;;;2034671;29;1419;-77
2021/12/24 01:52:09;;;;;;;;;;;;;;;;;;2037182;29;1317;-77
2021/12/24 01:53:15;;;;;;;;;;;;;;;;;;2051033;28;1405;-76
2021/12/24 01:54:18;;;;;;;;;;;;;;;;;;2050758;29;1391;-77
2021/12/24 01:55:20;;;;;;;;;;;;;;;;;;2050470;28;1744;-77
2021/12/24 01:56:21;;;;;;;;;;;;;;;;;;2050264;29;1277;-83
2021/12/24 01:57:22;;;;;;;;;;;;;;;;;;2050106;29;1266;-78
2021/12/24 01:58:25;;;;;;;;;;;;;;;;;;2050698;29;1229;-77
2021/12/24 01:59:27;;;;;;;;;;;;;;;;;;2050462;28;1241;-78
2021/12/24 02:00:29;;;;;;;;;;;;;;;;;;2058490;28;1421;-77
2021/12/24 02:01:31;;;;;;;;;;;;;;;;;;2050344;29;1365;-77
2021/12/24 02:02:31;;;;;;;;;;;;;;;;;;2050617;28;1082;-77
2021/12/24 02:03:33;;;;;;;;;;;;;;;;;;2058239;28;1910;-77
2021/12/24 02:04:34;;;;;;;;;;;;;;;;;;2058057;28;1289;-77
2021/12/24 02:05:36;;;;;;;;;;;;;;;;;;2050453;29;1693;-77
2021/12/24 02:06:37;;;;;;;;;;;;;;;;;;2050608;28;1285;-77
2021/12/24 02:07:39;;;;;;;;;;;;;;;;;;2050202;29;1910;-77
2021/12/24 02:08:41;;;;;;;;;;;;;;;;;;2050112;28;1509;-77
2021/12/24 02:09:43;;;;;;;;;;;;;;;;;;2050200;29;1537;-77
2021/12/24 02:10:44;;;;;;;;;;;;;;;;;;2050657;28;1308;-77
2021/12/24 02:11:46;;;;;;;;;;;;;;;;;;2042338;29;1299;-77
2021/12/24 02:12:48;;;;;;;;;;;;;;;;;;2042955;28;1388;-77
2021/12/24 02:13:50;;;;;;;;;;;;;;;;;;2050214;29;1593;-78
2021/12/24 02:14:54;;;;;;;;;;;;;;;;;;2042522;29;1293;-83
2021/12/24 02:16:09;;;;;;;;;;;;;;;;;;2050670;28;1734;-78
2021/12/24 02:17:35;;;;;;;;;;;;;;;;;;2050328;29;1317;-77
2021/12/24 02:29:12;;;;;;;;;;;;;;;;;;2044452;29;1347;-78
2021/12/24 02:30:13;;;;;;;;;;;;;;;;;;2042157;29;1432;-78
2021/12/24 02:31:17;;;;;;;;;;;;;;;;;;2042230;29;1468;-78
2021/12/24 02:32:17;;;;;;;;;;;;;;;;;;2042415;29;1509;-78
2021/12/24 02:33:19;;;;;;;;;;;;;;;;;;2042161;29;1249;-78
2021/12/24 02:34:20;;;;;;;;;;;;;;;;;;2050220;29;1521;-78
2021/12/24 02:35:23;;;;;;;;;;;;;;;;;;2034569;29;1145;-78
2021/12/24 02:36:27;;;;;;;;;;;;;;;;;;2038434;29;2055;-79
2021/12/24 02:37:28;;;;;;;;;;;;;;;;;;2050248;29;1533;-80
2021/12/24 02:38:30;;;;;;;;;;;;;;;;;;2050096;29;1208;-77
2021/12/24 02:39:31;;;;;;;;;;;;;;;;;;2049782;29;1183;-77
2021/12/24 02:40:32;;;;;;;;;;;;;;;;;;2050321;29;1546;-77
2021/12/24 02:41:33;;;;;;;;;;;;;;;;;;2050165;29;1426;-77
2021/12/24 02:42:35;;;;;;;;;;;;;;;;;;2042446;29;1207;-77
2021/12/24 02:43:36;;;;;;;;;;;;;;;;;;2049869;28;1910;-77
2021/12/24 02:44:38;;;;;;;;;;;;;;;;;;2042390;29;1746;-77
2021/12/24 02:45:41;;;;;;;;;;;;;;;;;;2042363;29;1304;-78
2021/12/24 02:47:06;;;;;;;;;;;;;;;;;;2050219;29;1658;-77
2021/12/24 02:48:24;;;;;;;;;;;;;;;;;;2050235;29;1218;-78
2021/12/24 02:53:56;;;;;;;;;;;;;;;;;;2050056;29;1348;-77
2021/12/24 02:53:58;;;;;;;;;;;;;;;;;;2050648;29;872;-78
2021/12/24 02:54:59;;;;;;;;;;;;;;;;;;2042708;29;1298;-79
2021/12/24 02:56:00;;;;;;;;;;;;;;;;;;2042198;29;1301;-78
2021/12/24 02:57:08;;;;;;;;;;;;;;;;;;2042111;29;1017;-78
2021/12/24 02:58:10;;;;;;;;;;;;;;;;;;2049963;29;1283;-79
2021/12/24 02:59:14;;;;;;;;;;;;;;;;;;2049924;29;1300;-78
2021/12/24 03:00:19;;;;;;;;;;;;;;;;;;2041931;29;1524;-78
2021/12/24 03:01:23;;;;;;;;;;;;;;;;;;2042605;29;967;-78
2021/12/24 03:02:24;;;;;;;;;;;;;;;;;;2050385;29;1579;-78
2021/12/24 03:03:26;;;;;;;;;;;;;;;;;;2049854;29;1914;-78
2021/12/24 03:04:27;;;;;;;;;;;;;;;;;;2050369;29;1570;-78
2021/12/24 03:05:28;;;;;;;;;;;;;;;;;;2042091;29;1282;-78
2021/12/24 03:06:32;;;;;;;;;;;;;;;;;;2042113;29;2220;-78
2021/12/24 03:07:34;;;;;;;;;;;;;;;;;;2050202;28;900;-78
2021/12/24 03:08:35;;;;;;;;;;;;;;;;;;2057986;28;1229;-78
2021/12/24 03:09:37;;;;;;;;;;;;;;;;;;2049921;29;1250;-78
2021/12/24 03:10:38;;;;;;;;;;;;;;;;;;2050181;28;1422;-79
2021/12/24 03:11:40;;;;;;;;;;;;;;;;;;2049391;29;2023;-78
2021/12/24 03:12:43;;;;;;;;;;;;;;;;;;2042314;29;1542;-78
2021/12/24 03:13:45;;;;;;;;;;;;;;;;;;2042438;29;801;-78
2021/12/24 03:14:46;;;;;;;;;;;;;;;;;;2050125;28;1303;-77
2021/12/24 03:15:51;;;;;;;;;;;;;;;;;;2049928;29;1232;-78
2021/12/24 03:16:57;;;;;;;;;;;;;;;;;;2057443;28;1265;-79
2021/12/24 03:18:00;;;;;;;;;;;;;;;;;;2057389;28;1540;-78
2021/12/24 03:19:01;;;;;;;;;;;;;;;;;;2033725;29;1538;-78
2021/12/24 03:20:07;;;;;;;;;;;;;;;;;;2034367;29;861;-78
2021/12/24 03:21:13;;;;;;;;;;;;;;;;;;2041864;29;1752;-78
2021/12/24 03:22:33;;;;;;;;;;;;;;;;;;2035106;29;1535;-78
2021/12/24 03:23:39;;;;;;;;;;;;;;;;;;2034153;29;1910;-78
2021/12/24 03:24:41;;;;;;;;;;;;;;;;;;2042532;29;1566;-78
2021/12/24 03:25:41;;;;;;;;;;;;;;;;;;2041814;29;1278;-78
2021/12/24 03:26:45;;;;;;;;;;;;;;;;;;2033965;29;1305;-78
2021/12/24 03:27:45;;;;;;;;;;;;;;;;;;2042488;29;1244;-78
2021/12/24 03:28:47;;;;;;;;;;;;;;;;;;2041942;29;1412;-78
2021/12/24 03:29:48;;;;;;;;;;;;;;;;;;2041843;29;1318;-79
2021/12/24 03:30:50;;;;;;;;;;;;;;;;;;2041862;29;1364;-78
2021/12/24 03:31:51;;;;;;;;;;;;;;;;;;2034334;29;1220;-83
2021/12/24 03:32:53;;;;;;;;;;;;;;;;;;2043610;29;1278;-79
2021/12/24 03:33:54;;;;;;;;;;;;;;;;;;2051282;29;1737;-78
2021/12/24 03:34:56;;;;;;;;;;;;;;;;;;2035915;29;1279;-78
2021/12/24 03:35:56;;;;;;;;;;;;;;;;;;2036085;29;1692;-79
2021/12/24 03:36:58;;;;;;;;;;;;;;;;;;2043716;29;1573;-79
2021/12/24 03:38:05;;;;;;;;;;;;;;;;;;2044178;29;1509;-78
2021/12/24 03:39:06;;;;;;;;;;;;;;;;;;2043587;29;1175;-78
2021/12/24 03:40:09;;;;;;;;;;;;;;;;;;2051655;29;1350;-78
2021/12/24 03:41:10;;;;;;;;;;;;;;;;;;2051475;28;1369;-78
2021/12/24 03:42:11;;;;;;;;;;;;;;;;;;2051241;29;1510;-80
2021/12/24 03:43:12;;;;;;;;;;;;;;;;;;2051479;28;1529;-78
2021/12/24 03:44:16;;;;;;;;;;;;;;;;;;2059416;28;1968;-78
2021/12/24 03:45:25;;;;;;;;;;;;;;;;;;2059580;28;1214;-78
2021/12/24 03:46:34;;;;;;;;;;;;;;;;;;2051824;29;1711;-78
2021/12/24 03:47:39;;;;;;;;;;;;;;;;;;2052704;28;1309;-79
2021/12/24 03:48:48;;;;;;;;;;;;;;;;;;2051655;29;1335;-78
2021/12/24 03:49:56;;;;;;;;;;;;;;;;;;2052366;28;1230;-78
2021/12/24 03:51:06;;;;;;;;;;;;;;;;;;2051345;29;1579;-78
2021/12/24 03:52:34;;;;;;;;;;;;;;;;;;2051372;29;1471;-78
2021/12/24 03:54:58;;;;;;;;;;;;;;;;;;2054242;28;817;-78
2021/12/24 03:56:02;;;;;;;;;;;;;;;;;;2059354;28;1341;-78
2021/12/24 03:57:05;;;;;;;;;;;;;;;;;;2051339;29;1435;-79
2021/12/24 03:58:27;;;;;;;;;;;;;;;;;;2053053;28;914;-78
2021/12/24 03:59:59;;;;;;;;;;;;;;;;;;2042942;29;1226;-79
2021/12/24 04:01:18;;;;;;;;;;;;;;;;;;2046455;28;1000;-79
2021/12/24 04:02:58;;;;;;;;;;;;;;;;;;2027549;29;1649;-78
2021/12/24 04:04:19;;;;;;;;;;;;;;;;;;2011820;29;1907;-78
2021/12/24 04:05:44;;;;;;;;;;;;;;;;;;2022244;29;1342;-78
2021/12/24 04:07:04;;;;;;;;;;;;;;;;;;2027365;29;1537;-78
2021/12/24 04:08:25;;;;;;;;;;;;;;;;;;2035709;28;1089;-78
2021/12/24 04:09:53;;;;;;;;;;;;;;;;;;2059246;28;1856;-78
2021/12/24 04:11:30;;;;;;;;;;;;;;;;;;2027388;29;1239;-78
2021/12/24 04:12:31;;;;;;;;;;;;;;;;;;2035167;29;1345;-78
2021/12/24 04:13:33;;;;;;;;;;;;;;;;;;2035848;29;1629;-79
2021/12/24 04:14:33;;;;;;;;;;;;;;;;;;2043246;29;1417;-78
2021/12/24 04:15:36;;;;;;;;;;;;;;;;;;2043108;29;1314;-78
2021/12/24 04:16:36;;;;;;;;;;;;;;;;;;2051422;29;1640;-78
2021/12/24 04:17:42;;;;;;;;;;;;;;;;;;2051365;28;1159;-80
2021/12/24 04:18:50;;;;;;;;;;;;;;;;;;2051201;29;1150;-78
2021/12/24 04:25:25;;;;;;;;;;;;;;;;;;2051342;29;1768;-78
2021/12/24 04:26:25;;;;;;;;;;;;;;;;;;2051704;28;1231;-78
2021/12/24 04:27:31;;;;;;;;;;;;;;;;;;2051211;28;1721;-77
2021/12/24 04:28:35;;;;;;;;;;;;;;;;;;2043991;29;1584;-80
2021/12/24 04:29:37;;;;;;;;;;;;;;;;;;2042994;29;1771;-79
2021/12/24 04:30:43;;;;;;;;;;;;;;;;;;2043421;29;1550;-78
2021/12/24 04:31:52;;;;;;;;;;;;;;;;;;2043778;29;1372;-78
2021/12/24 04:33:17;;;;;;;;;;;;;;;;;;2054903;28;649;-78
2021/12/24 04:34:25;;;;;;;;;;;;;;;;;;2051336;29;1553;-77
2021/12/24 04:37:14;;;;;;;;;;;;;;;;;;2053772;28;1523;-80
2021/12/24 04:38:32;;;;;;;;;;;;;;;;;;2058987;28;1286;-78
2021/12/24 04:39:45;;;;;;;;;;;;;;;;;;2050737;28;1281;-78
2021/12/24 04:51:26;;;;;;;;;;;;;;;;;;2049408;28;1986;-80
2021/12/24 05:02:10;;;;;;;;;;;;;;;;;;2051009;29;1786;-79
2021/12/24 05:03:28;;;;;;;;;;;;;;;;;;2042886;29;1329;-78
2021/12/24 05:04:32;;;;;;;;;;;;;;;;;;2036669;29;1970;-77
2021/12/24 05:05:44;;;;;;;;;;;;;;;;;;2035598;29;1529;-78
2021/12/24 05:06:51;;;;;;;;;;;;;;;;;;2036547;29;1258;-78
2021/12/24 05:08:13;;;;;;;;;;;;;;;;;;2036041;29;1432;-77
2021/12/24 05:09:20;;;;;;;;;;;;;;;;;;2040507;29;1432;-78
2021/12/24 05:10:23;;;;;;;;;;;;;;;;;;2051557;28;1461;-78
2021/12/24 05:11:26;;;;;;;;;;;;;;;;;;2050687;29;1291;-79
2021/12/24 05:12:29;;;;;;;;;;;;;;;;;;2050906;29;947;-78
2021/12/24 05:13:31;;;;;;;;;;;;;;;;;;2050722;29;1199;-78
2021/12/24 05:14:32;;;;;;;;;;;;;;;;;;2052862;28;1358;-78
2021/12/24 05:15:44;;;;;;;;;;;;;;;;;;2051290;28;1315;-76
2021/12/24 05:17:22;;;;;;;;;;;;;;;;;;2023864;29;1218;-76
2021/12/24 05:21:59;;;;;;;;;;;;;;;;;;2043087;29;1357;-79
2021/12/24 05:22:59;;;;;;;;;;;;;;;;;;2035157;29;1393;-81
2021/12/24 05:24:02;;;;;;;;;;;;;;;;;;2050852;29;1918;-78
2021/12/24 05:25:03;;;;;;;;;;;;;;;;;;2043016;29;1431;-78
2021/12/24 05:26:05;;;;;;;;;;;;;;;;;;2050618;29;1107;-78
2021/12/24 05:27:08;;;;;;;;;;;;;;;;;;2058709;28;1099;-79
2021/12/24 05:28:11;;;;;;;;;;;;;;;;;;2058890;28;1186;-78
2021/12/24 05:29:14;;;;;;;;;;;;;;;;;;2058302;28;1784;-79
2021/12/24 05:30:14;;;;;;;;;;;;;;;;;;2050963;29;1513;-80
2021/12/24 05:31:16;;;;;;;;;;;;;;;;;;2054069;28;1233;-79
2021/12/24 05:32:17;;;;;;;;;;;;;;;;;;2058853;28;1286;-78
2021/12/24 05:33:19;;;;;;;;;;;;;;;;;;2058067;28;1291;-77
2021/12/24 05:34:19;;;;;;;;;;;;;;;;;;2058885;28;1414;-78
2021/12/24 05:35:22;;;;;;;;;;;;;;;;;;2053320;28;1382;-78
2021/12/24 05:36:23;;;;;;;;;;;;;;;;;;2058435;28;1292;-82
2021/12/24 05:37:24;;;;;;;;;;;;;;;;;;2058436;28;1142;-79
2021/12/24 05:38:25;;;;;;;;;;;;;;;;;;2062616;28;1270;-78
2021/12/24 05:39:27;;;;;;;;;;;;;;;;;;2065787;28;1274;-77
2021/12/24 05:40:28;;;;;;;;;;;;;;;;;;2053749;28;1475;-77
2021/12/24 05:41:30;;;;;;;;;;;;;;;;;;2046576;28;1947;-77
2021/12/24 05:42:32;;;;;;;;;;;;;;;;;;2050675;28;1202;-78
2021/12/24 05:43:36;;;;;;;;;;;;;;;;;;2050498;28;1387;-77
2021/12/24 05:44:37;;;;;;;;;;;;;;;;;;2050654;28;1989;-78
2021/12/24 05:45:44;;;;;;;;;;;;;;;;;;2062399;28;1466;-79
2021/12/24 05:46:55;;;;;;;;;;;;;;;;;;2058927;28;940;-78
2021/12/24 05:48:13;;;;;;;;;;;;;;;;;;2050661;29;1312;-77
2021/12/24 05:49:17;;;;;;;;;;;;;;;;;;2037245;29;1405;-78
2021/12/24 05:50:37;;;;;;;;;;;;;;;;;;2048034;28;1306;-78
2021/12/24 05:52:08;;;;;;;;;;;;;;;;;;2020372;29;1367;-77
2021/12/24 05:53:14;;;;;;;;;;;;;;;;;;2016959;29;1566;-77
2021/12/24 05:54:29;;;;;;;;;;;;;;;;;;2044113;29;1471;-77
2021/12/24 05:55:29;;;;;;;;;;;;;;;;;;2051744;28;1468;-77
2021/12/24 05:56:39;;;;;;;;;;;;;;;;;;2057150;28;1982;-77
2021/12/24 05:57:48;;;;;;;;;;;;;;;;;;2050638;28;1793;-77
2021/12/24 05:58:51;;;;;;;;;;;;;;;;;;2058528;28;1524;-77
2021/12/24 05:59:51;;;;;;;;;;;;;;;;;;2058302;28;1185;-77
2021/12/24 06:00:53;;;;;;;;;;;;;;;;;;2050019;29;1319;-82
2021/12/24 06:02:00;;;;;;;;;;;;;;;;;;2043105;29;1074;-77
2021/12/24 06:03:00;;;;;;;;;;;;;;;;;;2042436;29;1781;-78
2021/12/24 06:04:02;;;;;;;;;;;;;;;;;;2050700;29;761;-77
2021/12/24 06:05:03;;;;;;;;;;;;;;;;;;2050452;29;1902;-77
2021/12/24 06:06:04;;;;;;;;;;;;;;;;;;2050301;28;1874;-78
2021/12/24 06:07:05;;;;;;;;;;;;;;;;;;2058351;28;902;-77
2021/12/24 06:08:07;;;;;;;;;;;;;;;;;;2059120;28;1171;-80
2021/12/24 06:09:08;;;;;;;;;;;;;;;;;;2058995;28;968;-77
2021/12/24 06:10:09;;;;;;;;;;;;;;;;;;2058918;28;805;-77
2021/12/24 06:11:11;;;;;;;;;;;;;;;;;;2060609;28;1963;-77
2021/12/24 06:12:11;;;;;;;;;;;;;;;;;;2066355;28;1035;-76
2021/12/24 06:13:14;;;;;;;;;;;;;;;;;;2066695;28;931;-78
2021/12/24 06:14:15;;;;;;;;;;;;;;;;;;2066351;28;1146;-77
2021/12/24 06:15:23;;;;;;;;;;;;;;;;;;2058176;28;1249;-77
2021/12/24 06:16:26;;;;;;;;;;;;;;;;;;2059072;28;1035;-77
2021/12/24 06:17:26;;;;;;;;;;;;;;;;;;2066621;28;1315;-77
2021/12/24 06:18:29;;;;;;;;;;;;;;;;;;2067244;28;817;-77
2021/12/24 06:19:30;;;;;;;;;;;;;;;;;;2066852;28;845;-77
2021/12/24 06:20:32;;;;;;;;;;;;;;;;;;2066728;28;1716;-78
2021/12/24 06:21:33;;;;;;;;;;;;;;;;;;2066034;28;1674;-78
2021/12/24 06:22:34;;;;;;;;;;;;;;;;;;2066248;28;1165;-77
2021/12/24 06:23:37;;;;;;;;;;;;;;;;;;2066271;28;1617;-77
2021/12/24 06:24:38;;;;;;;;;;;;;;;;;;2057971;28;1983;-78
2021/12/24 06:25:40;;;;;;;;;;;;;;;;;;2050127;28;1568;-77
2021/12/24 06:26:40;;;;;;;;;;;;;;;;;;2056320;28;2053;-77
2021/12/24 06:27:42;;;;;;;;;;;;;;;;;;2064329;28;950;-77
2021/12/24 06:28:42;;;;;;;;;;;;;;;;;;2066243;28;1307;-77
2021/12/24 06:29:45;;;;;;;;;;;;;;;;;;2065934;28;1528;-77
2021/12/24 06:30:46;;;;;;;;;;;;;;;;;;2073398;28;1700;-77
2021/12/24 06:31:48;;;;;;;;;;;;;;;;;;2059069;28;2017;-77
2021/12/24 06:32:49;;;;;;;;;;;;;;;;;;2050388;28;1746;-77
2021/12/24 06:33:50;;;;;;;;;;;;;;;;;;2058178;28;1776;-77
2021/12/24 06:34:51;;;;;;;;;;;;;;;;;;2066123;28;1057;-77
2021/12/24 06:35:54;;;;;;;;;;;;;;;;;;2066000;28;1638;-77
2021/12/24 06:36:55;;;;;;;;;;;;;;;;;;2050242;29;1273;-78
2021/12/24 06:37:57;;;;;;;;;;;;;;;;;;2050195;29;1344;-77
2021/12/24 06:38:58;;;;;;;;;;;;;;;;;;2058274;28;809;-78
2021/12/24 06:39:59;;;;;;;;;;;;;;;;;;2049969;29;1510;-77
2021/12/24 06:41:00;;;;;;;;;;;;;;;;;;2042692;28;1237;-78
2021/12/24 06:42:02;;;;;;;;;;;;;;;;;;2058053;28;1531;-77
2021/12/24 06:43:04;;;;;;;;;;;;;;;;;;2057950;28;826;-77
2021/12/24 06:44:09;;;;;;;;;;;;;;;;;;2058532;28;931;-77
2021/12/24 06:45:11;;;;;;;;;;;;;;;;;;2057851;28;1907;-77
2021/12/24 06:46:13;;;;;;;;;;;;;;;;;;2057691;28;1846;-78
2021/12/24 06:47:15;;;;;;;;;;;;;;;;;;2057851;28;1403;-77
2021/12/24 06:48:15;;;;;;;;;;;;;;;;;;2058079;28;1479;-77
2021/12/24 06:49:17;;;;;;;;;;;;;;;;;;2052712;28;1322;-78
2021/12/24 06:50:18;;;;;;;;;;;;;;;;;;2058197;28;1516;-77
2021/12/24 06:51:19;;;;;;;;;;;;;;;;;;2058046;28;1055;-77
2021/12/24 06:52:20;;;;;;;;;;;;;;;;;;2058640;28;794;-77
2021/12/24 06:53:23;;;;;;;;;;;;;;;;;;2058519;28;1080;-77
2021/12/24 06:54:25;;;;;;;;;;;;;;;;;;2058144;28;1154;-77
2021/12/24 06:55:26;;;;;;;;;;;;;;;;;;2049803;28;1224;-76
2021/12/24 06:56:34;;;;;;;;;;;;;;;;;;2042355;29;1325;-77
2021/12/24 06:57:36;;;;;;;;;;;;;;;;;;2050107;28;1166;-77
2021/12/24 06:58:37;;;;;;;;;;;;;;;;;;2050112;29;1287;-77
2021/12/24 06:59:39;;;;;;;;;;;;;;;;;;2041884;29;1459;-77
2021/12/24 07:00:42;;;;;;;;;;;;;;;;;;2050055;28;1329;-77
2021/12/24 07:01:44;;;;;;;;;;;;;;;;;;2057618;28;1721;-76
2021/12/24 07:02:46;;;;;;;;;;;;;;;;;;2057658;28;1425;-77
2021/12/24 07:03:46;;;;;;;;;;;;;;;;;;2057913;28;1219;-77
2021/12/24 07:04:48;;;;;;;;;;;;;;;;;;2050056;29;1906;-77
2021/12/24 07:05:48;;;;;;;;;;;;;;;;;;2049820;29;1589;-76
2021/12/24 07:06:50;;;;;;;;;;;;;;;;;;2057393;28;1003;-78
2021/12/24 07:07:50;;;;;;;;;;;;;;;;;;2049841;29;1615;-77
2021/12/24 07:08:52;;;;;;;;;;;;;;;;;;2050144;29;921;-77
2021/12/24 07:09:53;;;;;;;;;;;;;;;;;;2057752;28;1371;-77
2021/12/24 07:10:54;;;;;;;;;;;;;;;;;;2049954;28;2024;-82
2021/12/24 07:11:55;;;;;;;;;;;;;;;;;;2049986;28;955;-77
2021/12/24 07:12:56;;;;;;;;;;;;;;;;;;2066104;28;1204;-77
2021/12/24 07:13:57;;;;;;;;;;;;;;;;;;2057900;28;1607;-76
2021/12/24 07:14:59;;;;;;;;;;;;;;;;;;2049693;29;1610;-78
2021/12/24 07:16:02;;;;;;;;;;;;;;;;;;2058106;28;1191;-76
2021/12/24 07:17:03;;;;;;;;;;;;;;;;;;2058121;28;949;-77
2021/12/24 07:18:05;;;;;;;;;;;;;;;;;;2058198;28;1673;-77
2021/12/24 07:19:05;;;;;;;;;;;;;;;;;;2058001;28;868;-77
2021/12/24 07:20:07;;;;;;;;;;;;;;;;;;2066762;28;958;-77
2021/12/24 07:21:09;;;;;;;;;;;;;;;;;;2054957;28;1673;-77
2021/12/24 07:22:12;;;;;;;;;;;;;;;;;;2054613;28;1326;-77
2021/12/24 07:23:14;;;;;;;;;;;;;;;;;;2060941;28;1286;-78
2021/12/24 07:24:15;;;;;;;;;;;;;;;;;;2063537;28;1510;-78
2021/12/24 07:25:16;;;;;;;;;;;;;;;;;;2062145;28;1910;-77
2021/12/24 07:26:17;;;;;;;;;;;;;;;;;;2052539;28;1335;-77
2021/12/24 07:27:19;;;;;;;;;;;;;;;;;;2054662;28;1552;-78
2021/12/24 07:28:20;;;;;;;;;;;;;;;;;;2044993;28;1350;-77
2021/12/24 07:29:21;;;;;;;;;;;;;;;;;;2054513;28;1659;-78
2021/12/24 07:30:23;;;;;;;;;;;;;;;;;;2064672;28;1528;-78
2021/12/24 07:31:25;;;;;;;;;;;;;;;;;;2053549;28;1592;-78
2021/12/24 07:32:26;;;;;;;;;;;;;;;;;;2046864;28;1242;-77
2021/12/24 07:33:27;;;;;;;;;;;;;;;;;;2057206;28;940;-78
2021/12/24 07:34:29;;;;;;;;;;;;;;;;;;2050446;28;1769;-77
2021/12/24 07:35:29;;;;;;;;;;;;;;;;;;2049930;29;939;-77
2021/12/24 07:36:31;;;;;;;;;;;;;;;;;;2049977;28;1263;-77
2021/12/24 07:37:32;;;;;;;;;;;;;;;;;;2047024;29;1597;-77
2021/12/24 07:38:33;;;;;;;;;;;;;;;;;;2054991;28;1509;-78
2021/12/24 07:39:34;;;;;;;;;;;;;;;;;;2057443;28;1727;-77
2021/12/24 07:40:36;;;;;;;;;;;;;;;;;;2050049;29;889;-77
2021/12/24 07:41:36;;;;;;;;;;;;;;;;;;2063482;28;1326;-77
2021/12/24 07:42:42;;;;;;;;;;;;;;;;;;2057791;28;1214;-78
2021/12/24 07:43:43;;;;;;;;;;;;;;;;;;2054907;28;1392;-77
2021/12/24 07:44:45;;;;;;;;;;;;;;;;;;2057699;28;1618;-78
2021/12/24 07:45:46;;;;;;;;;;;;;;;;;;2057746;28;1092;-77
2021/12/24 07:46:53;;;;;;;;;;;;;;;;;;2053252;28;1708;-77
2021/12/24 07:48:07;;;;;;;;;;;;;;;;;;2058374;28;1092;-77
2021/12/24 07:49:19;;;;;;;;;;;;;;;;;;2058178;28;1333;-78
2021/12/24 07:52:55;;;;;;;;;;;;;;;;;;2065186;28;1603;-77
2021/12/24 07:54:00;;;;;;;;;;;;;;;;;;2049545;28;1757;-78
2021/12/24 07:55:01;;;;;;;;;;;;;;;;;;2055131;28;1298;-77
2021/12/24 07:56:02;;;;;;;;;;;;;;;;;;2057613;28;1648;-79
2021/12/24 07:57:04;;;;;;;;;;;;;;;;;;2053781;28;1333;-77
2021/12/24 07:58:06;;;;;;;;;;;;;;;;;;2056942;28;1425;-77
2021/12/24 07:59:09;;;;;;;;;;;;;;;;;;2064885;28;1278;-78
2021/12/24 08:00:10;;;;;;;;;;;;;;;;;;2052929;28;1800;-77
2021/12/24 08:01:17;;;;;;;;;;;;;;;;;;2058976;28;1692;-77
2021/12/24 08:02:24;;;;;;;;;;;;;;;;;;2059853;28;1666;-77
2021/12/24 08:03:26;;;;;;;;;;;;;;;;;;2056269;28;1415;-80
2021/12/24 08:04:27;;;;;;;;;;;;;;;;;;2049896;29;1080;-77
2021/12/24 08:05:29;;;;;;;;;;;;;;;;;;2063416;28;1911;-78
2021/12/24 08:06:30;;;;;;;;;;;;;;;;;;2070425;28;1290;-79
2021/12/24 08:07:32;;;;;;;;;;;;;;;;;;2060594;28;1649;-77
2021/12/24 08:08:33;;;;;;;;;;;;;;;;;;2057886;28;1570;-78
2021/12/24 08:09:37;;;;;;;;;;;;;;;;;;2065459;28;1835;-78
2021/12/24 08:10:38;;;;;;;;;;;;;;;;;;2057199;28;1767;-77
2021/12/24 08:11:40;;;;;;;;;;;;;;;;;;2057113;28;2000;-76
2021/12/24 08:12:41;;;;;;;;;;;;;;;;;;2064544;28;1764;-77
2021/12/24 08:13:43;;;;;;;;;;;;;;;;;;2064470;28;1456;-78
2021/12/24 08:14:45;;;;;;;;;;;;;;;;;;2063985;28;1484;-77
2021/12/24 08:15:50;;;;;;;;;;;;;;;;;;2057599;28;1691;-77
2021/12/24 08:16:50;;;;;;;;;;;;;;;;;;2056875;28;2116;-77
2021/12/24 08:17:55;;;;;;;;;;;;;;;;;;2057131;28;1585;-78
2021/12/24 08:18:56;;;;;;;;;;;;;;;;;;2035923;29;1613;-81
2021/12/24 08:19:57;;;;;;;;;;;;;;;;;;2045993;29;1295;-78
2021/12/24 08:20:58;;;;;;;;;;;;;;;;;;2051247;28;1673;-80
2021/12/24 08:21:59;;;;;;;;;;;;;;;;;;2050856;28;1595;-78
2021/12/24 08:23:01;;;;;;;;;;;;;;;;;;2049881;28;1363;-79
2021/12/24 08:24:02;;;;;;;;;;;;;;;;;;2043161;29;1681;-78
2021/12/24 08:25:05;;;;;;;;;;;;;;;;;;2042798;29;1927;-79
2021/12/24 08:26:07;;;;;;;;;;;;;;;;;;2043448;29;1113;-78
2021/12/24 08:27:09;;;;;;;;;;;;;;;;;;2052805;28;1330;-78
2021/12/24 08:28:10;;;;;;;;;;;;;;;;;;2058958;28;1236;-79
2021/12/24 08:29:12;;;;;;;;;;;;;;;;;;2051418;28;1417;-79
2021/12/24 08:30:13;;;;;;;;;;;;;;;;;;2048238;29;1310;-78
2021/12/24 08:31:15;;;;;;;;;;;;;;;;;;2052943;28;2112;-80
2021/12/24 08:32:17;;;;;;;;;;;;;;;;;;2067391;28;933;-79
2021/12/24 08:33:20;;;;;;;;;;;;;;;;;;2055533;28;1525;-78
2021/12/24 08:34:22;;;;;;;;;;;;;;;;;;2050875;29;1498;-80
2021/12/24 08:35:24;;;;;;;;;;;;;;;;;;2045057;29;1526;-78
2021/12/24 08:36:25;;;;;;;;;;;;;;;;;;2051172;28;2093;-78
2021/12/24 08:37:26;;;;;;;;;;;;;;;;;;2059026;28;848;-79
2021/12/24 08:38:28;;;;;;;;;;;;;;;;;;2049760;29;1335;-80
2021/12/24 08:39:29;;;;;;;;;;;;;;;;;;2042605;29;1659;-79
2021/12/24 08:40:31;;;;;;;;;;;;;;;;;;2043752;29;1554;-77
2021/12/24 08:41:31;;;;;;;;;;;;;;;;;;2048109;28;1994;-77
2021/12/24 08:42:33;;;;;;;;;;;;;;;;;;2051298;28;1571;-78